createdAt,value
2023-04-08T00:00:21.166Z,84.10
2023-04-08T00:02:47.796Z,84.60
2023-04-08T00:05:14.450Z,85.00
2023-04-08T00:07:41.019Z,84.90
2023-04-08T00:10:08.040Z,84.30
2023-04-08T00:12:34.740Z,84.50
2023-04-08T00:15:01.556Z,84.70
2023-04-08T00:17:28.852Z,85.40
2023-04-08T00:19:56.555Z,84.90
2023-04-08T00:22:23.394Z,85.40
2023-04-08T00:24:50.051Z,85.40
2023-04-08T00:27:16.915Z,85.70
2023-04-08T00:29:43.736Z,86.00
2023-04-08T00:32:10.590Z,86.60
2023-04-08T00:34:37.323Z,86.30
2023-04-08T00:37:04.286Z,86.00
2023-04-08T00:39:31.459Z,86.10
2023-04-08T00:41:58.436Z,85.80
2023-04-08T00:44:25.577Z,86.00
2023-04-08T00:46:52.468Z,85.70
2023-04-08T00:49:19.405Z,85.60
2023-04-08T00:51:46.119Z,86.00
2023-04-08T00:54:12.655Z,85.70
2023-04-08T00:56:39.552Z,85.50
2023-04-08T00:59:06.237Z,85.30
2023-04-08T01:01:35.076Z,85.40
2023-04-08T01:04:20.670Z,85.50
2023-04-08T01:06:53.116Z,85.00
2023-04-08T01:09:21.336Z,85.20
2023-04-08T01:11:50.119Z,84.80
2023-04-08T01:14:20.987Z,84.90
2023-04-08T01:16:48.021Z,84.90
2023-04-08T01:19:22.324Z,84.40
2023-04-08T01:21:49.258Z,84.50
2023-04-08T01:24:20.408Z,84.20
2023-04-08T01:26:47.445Z,84.70
2023-04-08T01:29:17.177Z,84.70
2023-04-08T01:31:44.151Z,84.80
2023-04-08T01:34:12.391Z,84.40
2023-04-08T01:36:40.762Z,85.40
2023-04-08T01:39:09.320Z,85.20
2023-04-08T01:41:36.434Z,84.60
2023-04-08T01:44:04.430Z,85.20
2023-04-08T01:46:32.491Z,85.60
2023-04-08T01:49:00.854Z,84.90
2023-04-08T01:51:28.263Z,84.60
2023-04-08T01:53:54.987Z,84.70
2023-04-08T01:56:22.451Z,85.20
2023-04-08T01:58:52.636Z,84.70
2023-04-08T02:01:21.287Z,84.90
2023-04-08T02:03:51.529Z,84.50
2023-04-08T02:06:18.259Z,84.20
2023-04-08T02:08:45.065Z,84.10
2023-04-08T02:11:11.711Z,85.20
2023-04-08T02:13:41.499Z,84.90
2023-04-08T02:16:18.734Z,84.80
2023-04-08T02:18:50.212Z,84.40
2023-04-08T02:21:20.731Z,84.70
2023-04-08T02:23:50.304Z,84.90
2023-04-08T02:26:18.110Z,84.80
2023-04-08T02:28:46.246Z,84.50
2023-04-08T02:31:16.214Z,84.80
2023-04-08T02:33:43.379Z,85.20
2023-04-08T02:36:11.135Z,85.20
2023-04-08T02:38:38.062Z,85.80
2023-04-08T02:41:04.880Z,85.30
2023-04-08T02:43:34.478Z,85.30
2023-04-08T02:46:04.640Z,86.10
2023-04-08T02:48:33.298Z,85.70
2023-04-08T02:51:00.215Z,85.80
2023-04-08T02:53:27.063Z,85.40
2023-04-08T02:55:54.013Z,85.50
2023-04-08T02:58:21.165Z,85.40
2023-04-08T03:00:48.171Z,85.80
2023-04-08T03:03:14.878Z,85.90
2023-04-08T03:05:41.774Z,86.20
2023-04-08T03:08:08.503Z,86.30
2023-04-08T03:10:35.760Z,87.30
2023-04-08T03:13:02.344Z,86.40
2023-04-08T03:15:29.295Z,86.40
2023-04-08T03:17:56.248Z,86.50
2023-04-08T03:20:23.176Z,86.80
2023-04-08T03:22:52.188Z,86.60
2023-04-08T03:25:18.913Z,86.90
2023-04-08T03:27:45.725Z,86.90
2023-04-08T03:30:12.881Z,87.20
2023-04-08T03:32:40.247Z,87.20
2023-04-08T03:35:07.000Z,87.10
2023-04-08T03:37:33.906Z,87.20
2023-04-08T03:40:00.882Z,86.90
2023-04-08T03:42:27.628Z,87.10
2023-04-08T03:44:54.468Z,87.10
2023-04-08T03:47:21.119Z,87.10
2023-04-08T03:49:47.780Z,87.50
2023-04-08T03:52:14.406Z,87.20
2023-04-08T03:54:41.272Z,87.70
2023-04-08T03:57:08.598Z,87.80
2023-04-08T03:59:37.831Z,87.40
2023-04-08T04:02:04.855Z,87.40
2023-04-08T04:04:31.874Z,87.20
2023-04-08T04:07:00.626Z,86.90
2023-04-08T04:09:27.416Z,87.50
2023-04-08T04:11:53.988Z,87.30
2023-04-08T04:14:20.788Z,87.20
2023-04-08T04:16:48.473Z,87.10
2023-04-08T04:19:18.550Z,87.50
2023-04-08T04:21:45.239Z,88.00
2023-04-08T04:24:13.639Z,87.70
2023-04-08T04:26:41.903Z,87.90
2023-04-08T04:29:08.820Z,88.00
2023-04-08T04:31:35.514Z,88.20
2023-04-08T04:34:02.387Z,88.20
2023-04-08T04:36:29.022Z,88.20
2023-04-08T04:38:56.916Z,87.90
2023-04-08T04:41:23.619Z,88.10
2023-04-08T04:43:51.393Z,88.10
2023-04-08T04:46:18.138Z,88.20
2023-04-08T04:48:45.082Z,88.20
2023-04-08T04:51:11.777Z,88.20
2023-04-08T04:53:38.617Z,88.10
2023-04-08T04:56:05.495Z,88.00
2023-04-08T04:58:32.661Z,88.00
2023-04-08T05:00:59.459Z,87.90
2023-04-08T05:03:27.702Z,87.70
2023-04-08T05:05:54.700Z,87.80
2023-04-08T05:08:21.982Z,87.60
2023-04-08T05:10:50.574Z,87.40
2023-04-08T05:13:18.089Z,87.30
2023-04-08T05:15:47.839Z,87.10
2023-04-08T05:18:14.731Z,87.00
2023-04-08T05:20:41.885Z,87.00
2023-04-08T05:23:09.049Z,87.00
2023-04-08T05:25:36.415Z,86.90
2023-04-08T05:28:03.591Z,86.80
2023-04-08T05:30:30.908Z,86.70
2023-04-08T05:33:00.393Z,86.60
2023-04-08T05:35:28.132Z,86.40
2023-04-08T05:37:55.100Z,86.40
2023-04-08T05:40:21.769Z,86.40
2023-04-08T05:42:48.628Z,86.40
2023-04-08T05:45:16.357Z,86.30
2023-04-08T05:47:43.186Z,86.20
2023-04-08T05:50:11.239Z,86.20
2023-04-08T05:52:37.876Z,86.00
2023-04-08T05:55:05.689Z,85.80
2023-04-08T05:57:32.597Z,85.80
2023-04-08T05:59:59.620Z,85.30
2023-04-08T06:02:26.546Z,85.30
2023-04-08T06:04:53.613Z,85.00
2023-04-08T06:07:20.507Z,84.80
2023-04-08T06:09:49.629Z,84.00
2023-04-08T06:12:16.333Z,83.70
2023-04-08T06:14:43.308Z,83.30
2023-04-08T06:17:10.209Z,82.80
2023-04-08T06:19:36.825Z,82.60
2023-04-08T06:22:03.426Z,82.60
2023-04-08T06:24:30.489Z,81.20
2023-04-08T06:26:57.103Z,81.50
2023-04-08T06:29:23.766Z,81.50
2023-04-08T06:31:51.334Z,81.00
2023-04-08T06:34:19.151Z,80.90
2023-04-08T06:36:45.765Z,80.20
2023-04-08T06:39:12.426Z,79.80
2023-04-08T06:41:39.020Z,80.10
2023-04-08T06:44:05.762Z,80.40
2023-04-08T06:46:32.428Z,80.20
2023-04-08T06:48:59.314Z,80.20
2023-04-08T06:51:28.254Z,80.60
2023-04-08T06:53:55.208Z,80.70
2023-04-08T06:56:23.251Z,81.00
2023-04-08T06:58:50.158Z,81.10
2023-04-08T07:01:18.642Z,81.50
2023-04-08T07:03:45.479Z,81.60
2023-04-08T07:06:14.743Z,81.70
2023-04-08T07:08:42.313Z,81.20
2023-04-08T07:11:12.608Z,77.60
2023-04-08T07:13:39.243Z,78.80
2023-04-08T07:16:07.163Z,78.80
2023-04-08T07:18:34.027Z,81.10
2023-04-08T07:21:01.589Z,78.10
2023-04-08T07:23:28.822Z,79.40
2023-04-08T07:25:55.482Z,79.00
2023-04-08T07:28:22.271Z,81.80
2023-04-08T07:30:48.941Z,80.10
2023-04-08T07:33:16.183Z,78.90
2023-04-08T07:35:43.430Z,79.80
2023-04-08T07:38:13.845Z,81.80
2023-04-08T07:40:40.820Z,80.10
2023-04-08T07:43:09.090Z,81.20
2023-04-08T07:45:35.907Z,81.60
2023-04-08T07:48:02.560Z,81.00
2023-04-08T07:50:29.200Z,81.80
2023-04-08T07:52:57.059Z,80.50
2023-04-08T07:55:23.689Z,80.90
2023-04-08T07:57:50.750Z,81.90
2023-04-08T08:00:21.607Z,81.40
2023-04-08T08:02:49.143Z,81.70
2023-04-08T08:05:16.209Z,79.70
2023-04-08T08:07:46.614Z,81.30
2023-04-08T08:10:14.691Z,80.20
2023-04-08T08:12:41.927Z,80.20
2023-04-08T08:15:08.978Z,81.70
2023-04-08T08:17:35.657Z,80.20
2023-04-08T08:20:04.248Z,81.10
2023-04-08T08:22:30.868Z,81.10
2023-04-08T08:24:58.073Z,81.80
2023-04-08T08:27:25.244Z,80.20
2023-04-08T08:29:52.623Z,80.30
2023-04-08T08:32:19.457Z,80.20
2023-04-08T08:34:46.062Z,80.00
2023-04-08T08:37:12.933Z,80.40
2023-04-08T08:39:39.545Z,80.90
2023-04-08T08:42:06.310Z,80.80
2023-04-08T08:44:33.196Z,80.90
2023-04-08T08:47:01.212Z,81.30
2023-04-08T08:49:27.903Z,80.40
2023-04-08T08:51:55.267Z,80.70
2023-04-08T08:54:22.413Z,81.00
2023-04-08T08:56:49.071Z,80.00
2023-04-08T08:59:15.753Z,80.30
2023-04-08T09:01:42.464Z,80.40
2023-04-08T09:04:17.318Z,81.50
2023-04-08T09:06:44.961Z,80.60
2023-04-08T09:09:11.951Z,79.60
2023-04-08T09:11:42.449Z,80.20
2023-04-08T09:14:19.572Z,79.80
2023-04-08T09:16:46.606Z,78.90
2023-04-08T09:19:13.732Z,80.60
2023-04-08T09:21:43.833Z,80.20
2023-04-08T09:24:26.965Z,78.70
2023-04-08T09:26:53.793Z,78.80
2023-04-08T09:29:26.390Z,79.40
2023-04-08T09:32:00.639Z,79.00
2023-04-08T09:34:28.093Z,78.40
2023-04-08T09:36:55.022Z,77.30
2023-04-08T09:39:21.902Z,75.60
2023-04-08T09:41:50.074Z,74.30
2023-04-08T09:44:18.670Z,73.80
2023-04-08T09:46:51.598Z,73.10
2023-04-08T09:49:31.261Z,72.60
2023-04-08T09:52:00.873Z,73.20
2023-04-08T09:54:51.410Z,72.20
2023-04-08T09:57:22.139Z,72.70
2023-04-08T09:59:52.703Z,73.10
2023-04-08T10:02:23.835Z,72.50
2023-04-08T10:04:52.388Z,73.20
2023-04-08T10:07:19.296Z,73.40
2023-04-08T10:09:46.290Z,74.50
2023-04-08T10:12:13.121Z,73.50
2023-04-08T10:14:40.015Z,72.00
2023-04-08T10:17:24.646Z,74.50
2023-04-08T10:19:51.358Z,74.40
2023-04-08T10:22:41.253Z,73.00
2023-04-08T10:25:17.261Z,74.60
2023-04-08T10:27:44.458Z,73.90
2023-04-08T10:30:26.672Z,73.40
2023-04-08T10:32:54.337Z,74.40
2023-04-08T10:35:35.825Z,74.00
2023-04-08T10:38:02.977Z,75.00
2023-04-08T10:40:36.430Z,74.90
2023-04-08T10:43:03.608Z,74.90
2023-04-08T10:45:30.528Z,76.50
2023-04-08T10:47:57.172Z,77.30
2023-04-08T10:50:24.102Z,76.40
2023-04-08T10:52:52.301Z,76.40
2023-04-08T10:55:25.464Z,76.60
2023-04-08T10:57:52.399Z,75.50
2023-04-08T11:00:19.562Z,76.40
2023-04-08T11:02:46.585Z,75.50
2023-04-08T11:05:13.331Z,77.10
2023-04-08T11:07:41.575Z,76.30
2023-04-08T11:10:08.884Z,77.30
2023-04-08T11:12:37.132Z,75.00
2023-04-08T11:15:04.426Z,75.70
2023-04-08T11:17:34.066Z,73.90
2023-04-08T11:20:07.036Z,74.40
2023-04-08T11:22:34.588Z,73.50
2023-04-08T11:25:01.940Z,72.10
2023-04-08T11:27:28.574Z,72.70
2023-04-08T11:29:56.178Z,72.40
2023-04-08T11:32:23.370Z,71.40
2023-04-08T11:34:50.243Z,71.20
2023-04-08T11:37:17.515Z,72.70
2023-04-08T11:39:44.877Z,73.20
2023-04-08T11:42:47.291Z,72.70
2023-04-08T11:45:16.146Z,73.90
2023-04-08T11:47:43.361Z,74.10
2023-04-08T11:50:10.272Z,73.90
2023-04-08T11:52:43.339Z,74.20
2023-04-08T11:55:11.353Z,74.10
2023-04-08T11:57:38.974Z,73.40
2023-04-08T12:00:06.521Z,74.90
2023-04-08T12:02:33.592Z,73.30
2023-04-08T12:05:01.416Z,74.30
2023-04-08T12:07:30.544Z,75.40
2023-04-08T12:09:57.137Z,74.30
2023-04-08T12:12:24.829Z,74.60
2023-04-08T12:14:51.745Z,73.50
2023-04-08T12:17:18.332Z,74.20
2023-04-08T12:19:44.932Z,74.30
2023-04-08T12:22:11.544Z,74.60
2023-04-08T12:24:38.141Z,74.50
2023-04-08T12:27:05.323Z,74.80
2023-04-08T12:29:31.951Z,74.80
2023-04-08T12:31:59.104Z,73.90
2023-04-08T12:34:25.858Z,74.10
2023-04-08T12:36:52.891Z,75.40
2023-04-08T12:39:19.980Z,75.50
2023-04-08T12:41:46.664Z,76.60
2023-04-08T12:44:13.529Z,75.40
2023-04-08T12:46:40.651Z,76.20
2023-04-08T12:49:07.422Z,76.70
2023-04-08T12:51:34.753Z,76.40
2023-04-08T12:54:03.458Z,77.30
2023-04-08T12:56:33.585Z,77.30
2023-04-08T12:59:01.481Z,76.90
2023-04-08T13:01:28.390Z,78.70
2023-04-08T13:03:55.849Z,77.60
2023-04-08T13:06:22.972Z,77.40
2023-04-08T13:08:50.417Z,78.40
2023-04-08T13:11:17.444Z,78.60
2023-04-08T13:13:44.802Z,77.90
2023-04-08T13:16:12.287Z,80.20
2023-04-08T13:18:38.949Z,79.20
2023-04-08T13:21:07.565Z,79.50
2023-04-08T13:23:34.326Z,78.90
2023-04-08T13:26:01.138Z,79.40
2023-04-08T13:28:28.045Z,80.40
2023-04-08T13:30:58.069Z,79.40
2023-04-08T13:33:24.775Z,79.70
2023-04-08T13:35:51.387Z,78.80
2023-04-08T13:38:18.241Z,79.90
2023-04-08T13:40:46.294Z,79.90
2023-04-08T13:43:14.784Z,80.10
2023-04-08T13:45:41.836Z,79.70
2023-04-08T13:48:08.958Z,79.20
2023-04-08T13:50:36.097Z,78.10
2023-04-08T13:53:03.033Z,78.20
2023-04-08T13:55:31.404Z,78.70
2023-04-08T13:57:58.265Z,78.10
2023-04-08T14:00:25.822Z,77.90
2023-04-08T14:02:52.954Z,78.50
2023-04-08T14:05:19.749Z,79.30
2023-04-08T14:07:46.542Z,78.60
2023-04-08T14:10:14.535Z,79.10
2023-04-08T14:12:41.597Z,77.40
2023-04-08T14:15:08.576Z,77.80
2023-04-08T14:17:36.169Z,78.50
2023-04-08T14:20:03.983Z,79.00
2023-04-08T14:22:30.631Z,79.90
2023-04-08T14:24:57.487Z,80.00
2023-04-08T14:27:24.311Z,78.10
2023-04-08T14:29:50.912Z,77.80
2023-04-08T14:32:17.912Z,78.10
2023-04-08T14:34:44.984Z,77.90
2023-04-08T14:37:12.258Z,78.10
2023-04-08T14:39:38.901Z,78.40
2023-04-08T14:42:05.539Z,79.10
2023-04-08T14:44:32.378Z,78.90
2023-04-08T14:46:59.326Z,79.10
2023-04-08T14:49:27.549Z,79.30
2023-04-08T14:51:54.337Z,79.00
2023-04-08T14:54:21.320Z,79.70
2023-04-08T14:56:47.954Z,79.50
2023-04-08T14:59:15.977Z,79.40
2023-04-08T15:01:44.824Z,79.70
2023-04-08T15:04:11.704Z,79.20
2023-04-08T15:06:40.330Z,78.80
2023-04-08T15:09:07.168Z,78.10
2023-04-08T15:11:33.820Z,79.20
2023-04-08T15:14:00.653Z,79.80
2023-04-08T15:16:27.438Z,79.60
2023-04-08T15:18:55.208Z,79.60
2023-04-08T15:21:23.049Z,80.20
2023-04-08T15:23:50.175Z,80.50
2023-04-08T15:26:16.870Z,80.30
2023-04-08T15:28:43.737Z,79.80
2023-04-08T15:31:10.439Z,80.20
2023-04-08T15:33:41.882Z,80.40
2023-04-08T15:36:08.893Z,80.10
2023-04-08T15:38:35.891Z,81.40
2023-04-08T15:41:02.937Z,80.90
2023-04-08T15:43:29.903Z,80.90
2023-04-08T15:45:56.889Z,81.00
2023-04-08T15:48:24.740Z,82.00
2023-04-08T15:50:52.067Z,81.50
2023-04-08T15:53:21.206Z,81.70
2023-04-08T15:55:48.089Z,81.90
2023-04-08T15:58:16.069Z,81.80
2023-04-08T16:00:42.673Z,81.70
2023-04-08T16:03:15.465Z,82.40
2023-04-08T16:05:42.216Z,82.70
2023-04-08T16:08:09.544Z,82.50
2023-04-08T16:10:36.206Z,82.10
2023-04-08T16:13:02.966Z,82.40
2023-04-08T16:15:29.638Z,82.60
2023-04-08T16:17:56.553Z,82.90
2023-04-08T16:20:23.499Z,82.30
2023-04-08T16:22:50.324Z,82.10
2023-04-08T16:25:17.790Z,82.20
2023-04-08T16:27:44.823Z,82.50
2023-04-08T16:30:12.002Z,82.90
2023-04-08T16:32:38.707Z,83.40
2023-04-08T16:35:05.689Z,83.50
2023-04-08T16:37:33.061Z,83.30
2023-04-08T16:39:59.672Z,83.20
2023-04-08T16:42:28.023Z,83.60
2023-04-08T16:44:58.216Z,83.70
2023-04-08T16:47:25.229Z,83.30
2023-04-08T16:49:53.090Z,83.00
2023-04-08T16:52:19.673Z,83.50
2023-04-08T16:54:46.460Z,83.80
2023-04-08T16:57:13.132Z,83.50
2023-04-08T16:59:39.850Z,83.50
2023-04-08T17:02:07.998Z,83.50
2023-04-08T17:04:34.924Z,83.30
2023-04-08T17:07:01.693Z,84.20
2023-04-08T17:09:28.608Z,84.10
2023-04-08T17:11:56.064Z,84.00
2023-04-08T17:14:22.976Z,84.10
2023-04-08T17:16:49.728Z,84.60
2023-04-08T17:19:17.934Z,84.50
2023-04-08T17:21:47.393Z,84.30
2023-04-08T17:24:14.047Z,83.60
2023-04-08T17:26:42.297Z,84.10
2023-04-08T17:29:10.042Z,83.70
2023-04-08T17:31:37.176Z,83.70
2023-04-08T17:34:03.892Z,83.60
2023-04-08T17:36:31.349Z,83.90
2023-04-08T17:38:58.304Z,83.60
2023-04-08T17:41:38.228Z,84.00
2023-04-08T17:44:06.296Z,84.50
2023-04-08T17:46:33.549Z,84.70
2023-04-08T17:49:03.013Z,84.80
2023-04-08T17:51:31.134Z,84.30
2023-04-08T17:53:57.803Z,84.60
2023-04-08T17:56:27.310Z,85.10
2023-04-08T17:58:54.170Z,84.80
2023-04-08T18:01:22.788Z,85.00
2023-04-08T18:03:52.046Z,84.90
2023-04-08T18:06:18.929Z,84.90
2023-04-08T18:08:46.265Z,84.70
2023-04-08T18:11:12.949Z,85.00
2023-04-08T18:13:39.792Z,85.20
2023-04-08T18:16:15.479Z,85.50
2023-04-08T18:18:42.176Z,85.20
2023-04-08T18:21:08.832Z,85.10
2023-04-08T18:23:35.775Z,84.80
2023-04-08T18:26:02.732Z,85.20
2023-04-08T18:28:29.484Z,85.30
2023-04-08T18:30:56.324Z,84.90
2023-04-08T18:33:23.097Z,85.10
2023-04-08T18:35:49.808Z,84.90
2023-04-08T18:38:17.160Z,85.40
2023-04-08T18:40:46.035Z,85.40
2023-04-08T18:43:13.878Z,85.70
2023-04-08T18:45:41.150Z,85.60
2023-04-08T18:48:08.560Z,85.90
2023-04-08T18:50:35.333Z,86.10
2023-04-08T18:53:04.760Z,86.20
2023-04-08T18:55:32.811Z,86.20
2023-04-08T18:57:59.699Z,86.30
2023-04-08T19:00:26.509Z,86.40
2023-04-08T19:02:53.597Z,86.50
2023-04-08T19:05:20.580Z,86.70
2023-04-08T19:07:47.253Z,86.80
2023-04-08T19:10:14.050Z,86.80
2023-04-08T19:12:40.877Z,86.80
2023-04-08T19:15:07.622Z,86.60
2023-04-08T19:17:34.245Z,86.60
2023-04-08T19:20:01.029Z,86.70
2023-04-08T19:22:27.626Z,86.60
2023-04-08T19:24:55.211Z,86.50
2023-04-08T19:27:22.109Z,86.80
2023-04-08T19:29:49.799Z,86.80
2023-04-08T19:32:16.910Z,86.90
2023-04-08T19:34:43.483Z,87.00
2023-04-08T19:37:10.710Z,87.10
2023-04-08T19:39:37.306Z,87.10
2023-04-08T19:42:03.910Z,87.10
2023-04-08T19:44:30.758Z,87.10
2023-04-08T19:46:57.799Z,87.20
2023-04-08T19:49:25.065Z,87.30
2023-04-08T19:51:51.942Z,87.30
2023-04-08T19:54:18.746Z,87.30
2023-04-08T19:56:45.564Z,87.20
2023-04-08T19:59:12.333Z,87.20
2023-04-08T20:01:40.055Z,87.00
2023-04-08T20:04:07.197Z,87.00
2023-04-08T20:06:34.932Z,86.90
2023-04-08T20:09:05.510Z,86.90
2023-04-08T20:11:35.266Z,87.10
2023-04-08T20:14:03.090Z,87.10
2023-04-08T20:16:29.800Z,87.10
2023-04-08T20:18:56.726Z,87.20
2023-04-08T20:21:23.369Z,87.10
2023-04-08T20:23:50.221Z,87.20
2023-04-08T20:26:16.868Z,87.30
2023-04-08T20:28:45.111Z,87.40
2023-04-08T20:31:12.071Z,87.50
2023-04-08T20:33:44.297Z,87.30
2023-04-08T20:36:14.220Z,87.10
2023-04-08T20:38:42.815Z,87.10
2023-04-08T20:41:09.927Z,87.00
2023-04-08T20:43:36.663Z,87.10
2023-04-08T20:46:03.507Z,87.20
2023-04-08T20:48:30.102Z,87.40
2023-04-08T20:50:57.700Z,87.20
2023-04-08T20:53:24.579Z,87.40
2023-04-08T20:55:51.838Z,87.40
2023-04-08T20:58:18.452Z,87.30
2023-04-08T21:00:47.411Z,87.60
2023-04-08T21:03:14.575Z,87.70
2023-04-08T21:05:41.835Z,87.70
2023-04-08T21:08:08.897Z,87.80
2023-04-08T21:10:35.753Z,87.90
2023-04-08T21:13:02.567Z,87.80
2023-04-08T21:15:29.452Z,87.80
2023-04-08T21:17:56.354Z,87.90
2023-04-08T21:20:23.396Z,87.90
2023-04-08T21:22:50.246Z,87.70
2023-04-08T21:25:20.504Z,87.60
2023-04-08T21:27:47.316Z,87.60
2023-04-08T21:30:14.018Z,87.50
2023-04-08T21:32:41.404Z,87.50
2023-04-08T21:35:08.223Z,87.50
2023-04-08T21:37:36.783Z,87.80
2023-04-08T21:40:04.150Z,87.90
2023-04-08T21:42:31.335Z,88.00
2023-04-08T21:44:58.147Z,88.00
2023-04-08T21:47:24.999Z,87.80
2023-04-08T21:49:51.660Z,88.00
2023-04-08T21:52:18.483Z,88.10
2023-04-08T21:54:48.563Z,88.00
2023-04-08T21:57:17.517Z,87.90
2023-04-08T21:59:44.580Z,87.90
2023-04-08T22:02:11.839Z,88.20
2023-04-08T22:04:38.723Z,88.30
2023-04-08T22:07:05.498Z,88.20
2023-04-08T22:09:32.226Z,88.20
2023-04-08T22:11:59.053Z,88.40
2023-04-08T22:14:25.836Z,88.40
2023-04-08T22:16:52.752Z,88.40
2023-04-08T22:19:19.426Z,88.20
2023-04-08T22:21:46.360Z,88.10
2023-04-08T22:24:12.968Z,88.20
2023-04-08T22:26:39.792Z,87.90
2023-04-08T22:29:07.302Z,88.00
2023-04-08T22:31:34.123Z,88.20
2023-04-08T22:34:00.922Z,88.20
2023-04-08T22:36:27.754Z,88.40
2023-04-08T22:38:54.714Z,88.40
2023-04-08T22:41:22.050Z,88.10
2023-04-08T22:43:49.180Z,88.00
2023-04-08T22:46:18.318Z,88.10
2023-04-08T22:48:45.560Z,88.00
2023-04-08T22:51:12.624Z,87.80
2023-04-08T22:53:39.683Z,88.10
2023-04-08T22:56:06.483Z,88.30
2023-04-08T22:58:33.295Z,88.60
2023-04-08T23:01:00.080Z,88.70
2023-04-08T23:03:26.815Z,88.80
2023-04-08T23:05:53.702Z,88.80
2023-04-08T23:08:20.347Z,88.90
2023-04-08T23:10:47.119Z,88.70
2023-04-08T23:13:14.520Z,88.60
2023-04-08T23:15:41.593Z,88.50
2023-04-08T23:18:08.431Z,88.60
2023-04-08T23:20:35.571Z,88.70
2023-04-08T23:23:03.627Z,88.60
2023-04-08T23:25:30.414Z,88.50
2023-04-08T23:27:57.335Z,88.60
2023-04-08T23:30:23.980Z,88.70
2023-04-08T23:32:51.043Z,88.60
2023-04-08T23:35:17.667Z,88.60
2023-04-08T23:37:44.560Z,88.80
2023-04-08T23:40:11.284Z,88.80
2023-04-08T23:42:38.081Z,88.70
2023-04-08T23:45:05.465Z,88.60
2023-04-08T23:47:32.353Z,88.60
2023-04-08T23:49:59.208Z,88.70
2023-04-08T23:52:26.150Z,88.70
2023-04-08T23:54:53.050Z,88.80
2023-04-08T23:57:20.536Z,88.70
2023-04-08T23:59:47.428Z,88.60
